sensor_id;sensor_type;location;lat;lon;timestamp;P1;durP1;ratioP1;P2;durP2;ratioP2
30707;SDS011;17458;48.958;8.284;2023-03-05T00:02:05;44.75;;;20.15;;
30707;SDS011;17458;48.958;8.284;2023-03-05T00:04:50;45.13;;;19.83;;
30707;SDS011;17458;48.958;8.284;2023-03-05T00:07:34;38.47;;;18.92;;
30707;SDS011;17458;48.958;8.284;2023-03-05T00:10:17;47.15;;;20.52;;
30707;SDS011;17458;48.958;8.284;2023-03-05T00:13:01;46.85;;;21.50;;
30707;SDS011;17458;48.958;8.284;2023-03-05T00:15:45;40.90;;;18.40;;
30707;SDS011;17458;48.958;8.284;2023-03-05T00:18:29;47.55;;;20.05;;
30707;SDS011;17458;48.958;8.284;2023-03-05T00:24:07;44.63;;;18.63;;
30707;SDS011;17458;48.958;8.284;2023-03-05T00:26:54;44.75;;;20.23;;
30707;SDS011;17458;48.958;8.284;2023-03-05T00:29:39;58.05;;;19.20;;
30707;SDS011;17458;48.958;8.284;2023-03-05T00:32:24;48.63;;;20.23;;
30707;SDS011;17458;48.958;8.284;2023-03-05T00:35:08;40.13;;;20.55;;
30707;SDS011;17458;48.958;8.284;2023-03-05T00:37:53;44.17;;;19.65;;
30707;SDS011;17458;48.958;8.284;2023-03-05T00:40:37;47.67;;;18.13;;
30707;SDS011;17458;48.958;8.284;2023-03-05T00:43:23;44.78;;;20.60;;
30707;SDS011;17458;48.958;8.284;2023-03-05T00:46:07;42.33;;;18.65;;
30707;SDS011;17458;48.958;8.284;2023-03-05T00:48:52;46.38;;;20.33;;
30707;SDS011;17458;48.958;8.284;2023-03-05T00:51:37;39.17;;;19.45;;
30707;SDS011;17458;48.958;8.284;2023-03-05T00:54:21;44.22;;;20.00;;
30707;SDS011;17458;48.958;8.284;2023-03-05T00:57:07;47.22;;;19.50;;
30707;SDS011;17458;48.958;8.284;2023-03-05T00:59:51;49.22;;;20.85;;
30707;SDS011;17458;48.958;8.284;2023-03-05T01:02:35;43.70;;;19.15;;
30707;SDS011;17458;48.958;8.284;2023-03-05T01:05:19;46.30;;;19.60;;
30707;SDS011;17458;48.958;8.284;2023-03-05T01:08:03;48.95;;;19.42;;
30707;SDS011;17458;48.958;8.284;2023-03-05T01:10:47;41.50;;;18.23;;
30707;SDS011;17458;48.958;8.284;2023-03-05T01:13:31;41.38;;;18.88;;
30707;SDS011;17458;48.958;8.284;2023-03-05T01:16:15;47.78;;;18.73;;
30707;SDS011;17458;48.958;8.284;2023-03-05T01:18:59;47.35;;;19.33;;
30707;SDS011;17458;48.958;8.284;2023-03-05T01:21:43;37.83;;;17.83;;
30707;SDS011;17458;48.958;8.284;2023-03-05T01:24:27;38.13;;;18.67;;
30707;SDS011;17458;48.958;8.284;2023-03-05T01:27:13;39.60;;;18.70;;
30707;SDS011;17458;48.958;8.284;2023-03-05T01:29:57;39.42;;;17.90;;
30707;SDS011;17458;48.958;8.284;2023-03-05T01:32:41;48.58;;;18.40;;
30707;SDS011;17458;48.958;8.284;2023-03-05T01:35:25;49.42;;;18.38;;
30707;SDS011;17458;48.958;8.284;2023-03-05T01:38:09;40.25;;;19.98;;
30707;SDS011;17458;48.958;8.284;2023-03-05T01:40:53;47.42;;;18.58;;
30707;SDS011;17458;48.958;8.284;2023-03-05T01:43:37;42.60;;;19.05;;
30707;SDS011;17458;48.958;8.284;2023-03-05T01:46:26;51.83;;;18.00;;
30707;SDS011;17458;48.958;8.284;2023-03-05T01:49:16;45.70;;;17.98;;
30707;SDS011;17458;48.958;8.284;2023-03-05T01:52:06;45.83;;;18.13;;
30707;SDS011;17458;48.958;8.284;2023-03-05T01:55:14;39.17;;;17.48;;
30707;SDS011;17458;48.958;8.284;2023-03-05T01:58:04;50.65;;;19.42;;
30707;SDS011;17458;48.958;8.284;2023-03-05T02:00:54;50.65;;;18.80;;
30707;SDS011;17458;48.958;8.284;2023-03-05T02:03:39;47.22;;;17.83;;
30707;SDS011;17458;48.958;8.284;2023-03-05T02:06:24;54.28;;;19.13;;
30707;SDS011;17458;48.958;8.284;2023-03-05T02:09:09;39.50;;;17.70;;
30707;SDS011;17458;48.958;8.284;2023-03-05T02:11:53;37.72;;;19.00;;
30707;SDS011;17458;48.958;8.284;2023-03-05T02:14:39;42.17;;;19.08;;
30707;SDS011;17458;48.958;8.284;2023-03-05T02:17:26;53.10;;;18.27;;
30707;SDS011;17458;48.958;8.284;2023-03-05T02:20:12;43.13;;;19.25;;
30707;SDS011;17458;48.958;8.284;2023-03-05T02:22:59;45.58;;;18.63;;
30707;SDS011;17458;48.958;8.284;2023-03-05T02:25:43;37.13;;;18.63;;
30707;SDS011;17458;48.958;8.284;2023-03-05T02:28:33;42.08;;;18.10;;
30707;SDS011;17458;48.958;8.284;2023-03-05T02:31:21;39.15;;;18.45;;
30707;SDS011;17458;48.958;8.284;2023-03-05T02:34:07;42.45;;;17.98;;
30707;SDS011;17458;48.958;8.284;2023-03-05T02:36:51;47.03;;;19.25;;
30707;SDS011;17458;48.958;8.284;2023-03-05T02:39:39;48.30;;;20.50;;
30707;SDS011;17458;48.958;8.284;2023-03-05T02:42:23;39.78;;;17.80;;
30707;SDS011;17458;48.958;8.284;2023-03-05T02:45:08;42.70;;;17.80;;
30707;SDS011;17458;48.958;8.284;2023-03-05T02:47:54;44.38;;;17.90;;
30707;SDS011;17458;48.958;8.284;2023-03-05T02:50:38;47.00;;;18.92;;
30707;SDS011;17458;48.958;8.284;2023-03-05T02:53:24;40.55;;;17.42;;
30707;SDS011;17458;48.958;8.284;2023-03-05T02:56:09;49.08;;;20.45;;
30707;SDS011;17458;48.958;8.284;2023-03-05T02:58:53;48.58;;;19.60;;
30707;SDS011;17458;48.958;8.284;2023-03-05T03:01:37;46.53;;;19.80;;
30707;SDS011;17458;48.958;8.284;2023-03-05T03:04:21;46.10;;;19.35;;
30707;SDS011;17458;48.958;8.284;2023-03-05T03:07:05;48.83;;;19.70;;
30707;SDS011;17458;48.958;8.284;2023-03-05T03:09:49;42.33;;;19.85;;
30707;SDS011;17458;48.958;8.284;2023-03-05T03:12:42;47.80;;;20.10;;
30707;SDS011;17458;48.958;8.284;2023-03-05T03:15:27;39.22;;;19.13;;
30707;SDS011;17458;48.958;8.284;2023-03-05T03:18:11;42.58;;;18.42;;
30707;SDS011;17458;48.958;8.284;2023-03-05T03:20:55;50.38;;;19.92;;
30707;SDS011;17458;48.958;8.284;2023-03-05T03:23:39;43.30;;;19.00;;
30707;SDS011;17458;48.958;8.284;2023-03-05T03:26:23;41.83;;;19.92;;
30707;SDS011;17458;48.958;8.284;2023-03-05T03:29:07;48.92;;;20.25;;
30707;SDS011;17458;48.958;8.284;2023-03-05T03:31:51;52.08;;;19.90;;
30707;SDS011;17458;48.958;8.284;2023-03-05T03:34:35;45.40;;;20.45;;
30707;SDS011;17458;48.958;8.284;2023-03-05T03:37:19;46.17;;;19.45;;
30707;SDS011;17458;48.958;8.284;2023-03-05T03:40:04;49.83;;;19.20;;
30707;SDS011;17458;48.958;8.284;2023-03-05T03:42:50;38.78;;;19.92;;
30707;SDS011;17458;48.958;8.284;2023-03-05T03:45:34;47.53;;;21.00;;
30707;SDS011;17458;48.958;8.284;2023-03-05T03:48:23;43.88;;;19.38;;
30707;SDS011;17458;48.958;8.284;2023-03-05T03:51:08;51.70;;;19.33;;
30707;SDS011;17458;48.958;8.284;2023-03-05T03:53:52;46.63;;;19.73;;
30707;SDS011;17458;48.958;8.284;2023-03-05T03:56:36;43.70;;;19.50;;
30707;SDS011;17458;48.958;8.284;2023-03-05T03:59:20;48.53;;;20.17;;
30707;SDS011;17458;48.958;8.284;2023-03-05T04:02:05;44.88;;;19.55;;
30707;SDS011;17458;48.958;8.284;2023-03-05T04:04:49;47.38;;;20.88;;
30707;SDS011;17458;48.958;8.284;2023-03-05T04:07:33;51.22;;;18.98;;
30707;SDS011;17458;48.958;8.284;2023-03-05T04:10:17;47.22;;;18.85;;
30707;SDS011;17458;48.958;8.284;2023-03-05T04:13:01;52.13;;;19.48;;
30707;SDS011;17458;48.958;8.284;2023-03-05T04:15:47;41.33;;;17.45;;
30707;SDS011;17458;48.958;8.284;2023-03-05T04:18:31;48.03;;;18.15;;
30707;SDS011;17458;48.958;8.284;2023-03-05T04:21:14;51.75;;;21.98;;
30707;SDS011;17458;48.958;8.284;2023-03-05T04:23:58;45.75;;;21.08;;
30707;SDS011;17458;48.958;8.284;2023-03-05T04:26:42;41.88;;;18.80;;
30707;SDS011;17458;48.958;8.284;2023-03-05T04:29:26;55.22;;;20.58;;
30707;SDS011;17458;48.958;8.284;2023-03-05T04:32:10;52.47;;;19.52;;
30707;SDS011;17458;48.958;8.284;2023-03-05T04:34:55;49.10;;;20.23;;
30707;SDS011;17458;48.958;8.284;2023-03-05T04:37:40;37.08;;;18.05;;
30707;SDS011;17458;48.958;8.284;2023-03-05T04:40:24;55.13;;;20.60;;
30707;SDS011;17458;48.958;8.284;2023-03-05T04:43:08;40.80;;;19.30;;
30707;SDS011;17458;48.958;8.284;2023-03-05T04:45:53;43.53;;;19.08;;
30707;SDS011;17458;48.958;8.284;2023-03-05T04:48:38;50.30;;;21.15;;
30707;SDS011;17458;48.958;8.284;2023-03-05T04:51:22;40.60;;;20.00;;
30707;SDS011;17458;48.958;8.284;2023-03-05T04:54:06;37.38;;;18.40;;
30707;SDS011;17458;48.958;8.284;2023-03-05T04:56:51;50.65;;;18.73;;
30707;SDS011;17458;48.958;8.284;2023-03-05T04:59:35;47.35;;;20.05;;
30707;SDS011;17458;48.958;8.284;2023-03-05T05:02:20;50.42;;;20.88;;
30707;SDS011;17458;48.958;8.284;2023-03-05T05:05:04;47.60;;;20.23;;
30707;SDS011;17458;48.958;8.284;2023-03-05T05:07:48;44.42;;;19.85;;
30707;SDS011;17458;48.958;8.284;2023-03-05T05:10:41;48.65;;;19.95;;
30707;SDS011;17458;48.958;8.284;2023-03-05T05:13:26;48.03;;;20.52;;
30707;SDS011;17458;48.958;8.284;2023-03-05T05:16:10;48.08;;;18.95;;
30707;SDS011;17458;48.958;8.284;2023-03-05T05:18:55;51.33;;;20.05;;
30707;SDS011;17458;48.958;8.284;2023-03-05T05:21:39;44.67;;;19.00;;
30707;SDS011;17458;48.958;8.284;2023-03-05T05:24:22;54.20;;;20.80;;
30707;SDS011;17458;48.958;8.284;2023-03-05T05:27:06;48.78;;;20.05;;
30707;SDS011;17458;48.958;8.284;2023-03-05T05:29:51;41.72;;;19.65;;
30707;SDS011;17458;48.958;8.284;2023-03-05T05:32:35;43.78;;;19.08;;
30707;SDS011;17458;48.958;8.284;2023-03-05T05:35:19;49.00;;;18.40;;
30707;SDS011;17458;48.958;8.284;2023-03-05T05:38:04;50.47;;;19.63;;
30707;SDS011;17458;48.958;8.284;2023-03-05T05:40:48;47.17;;;19.80;;
30707;SDS011;17458;48.958;8.284;2023-03-05T05:43:32;46.40;;;19.45;;
30707;SDS011;17458;48.958;8.284;2023-03-05T05:46:17;45.15;;;20.52;;
30707;SDS011;17458;48.958;8.284;2023-03-05T05:49:02;52.47;;;18.77;;
30707;SDS011;17458;48.958;8.284;2023-03-05T05:51:46;44.15;;;20.15;;
30707;SDS011;17458;48.958;8.284;2023-03-05T05:54:30;47.25;;;19.77;;
30707;SDS011;17458;48.958;8.284;2023-03-05T05:57:14;47.08;;;19.48;;
30707;SDS011;17458;48.958;8.284;2023-03-05T05:59:58;44.85;;;19.38;;
30707;SDS011;17458;48.958;8.284;2023-03-05T06:02:42;50.08;;;20.42;;
30707;SDS011;17458;48.958;8.284;2023-03-05T06:05:27;44.78;;;20.08;;
30707;SDS011;17458;48.958;8.284;2023-03-05T06:08:11;49.15;;;22.40;;
30707;SDS011;17458;48.958;8.284;2023-03-05T06:10:54;43.55;;;20.75;;
30707;SDS011;17458;48.958;8.284;2023-03-05T06:13:42;44.53;;;19.70;;
30707;SDS011;17458;48.958;8.284;2023-03-05T06:16:26;48.63;;;20.05;;
30707;SDS011;17458;48.958;8.284;2023-03-05T06:19:13;45.75;;;20.20;;
30707;SDS011;17458;48.958;8.284;2023-03-05T06:21:58;50.15;;;21.05;;
30707;SDS011;17458;48.958;8.284;2023-03-05T06:24:42;46.05;;;19.35;;
30707;SDS011;17458;48.958;8.284;2023-03-05T06:27:26;53.70;;;19.88;;
30707;SDS011;17458;48.958;8.284;2023-03-05T06:30:10;48.17;;;19.73;;
30707;SDS011;17458;48.958;8.284;2023-03-05T06:32:55;45.22;;;19.45;;
30707;SDS011;17458;48.958;8.284;2023-03-05T06:35:39;55.85;;;21.13;;
30707;SDS011;17458;48.958;8.284;2023-03-05T06:38:23;40.22;;;18.42;;
30707;SDS011;17458;48.958;8.284;2023-03-05T06:41:09;56.17;;;21.33;;
30707;SDS011;17458;48.958;8.284;2023-03-05T06:43:59;43.22;;;20.58;;
30707;SDS011;17458;48.958;8.284;2023-03-05T06:46:45;43.83;;;19.25;;
30707;SDS011;17458;48.958;8.284;2023-03-05T06:49:29;52.17;;;22.27;;
30707;SDS011;17458;48.958;8.284;2023-03-05T06:52:13;46.80;;;21.63;;
30707;SDS011;17458;48.958;8.284;2023-03-05T06:54:57;48.75;;;22.08;;
30707;SDS011;17458;48.958;8.284;2023-03-05T06:57:41;45.03;;;20.75;;
30707;SDS011;17458;48.958;8.284;2023-03-05T07:00:24;47.70;;;21.52;;
30707;SDS011;17458;48.958;8.284;2023-03-05T07:03:12;44.47;;;19.52;;
30707;SDS011;17458;48.958;8.284;2023-03-05T07:05:57;46.95;;;21.13;;
30707;SDS011;17458;48.958;8.284;2023-03-05T07:08:41;55.80;;;21.60;;
30707;SDS011;17458;48.958;8.284;2023-03-05T07:11:27;48.80;;;20.48;;
30707;SDS011;17458;48.958;8.284;2023-03-05T07:14:11;60.03;;;22.10;;
30707;SDS011;17458;48.958;8.284;2023-03-05T07:16:55;46.70;;;20.40;;
30707;SDS011;17458;48.958;8.284;2023-03-05T07:19:39;49.53;;;21.27;;
30707;SDS011;17458;48.958;8.284;2023-03-05T07:22:25;54.67;;;23.38;;
30707;SDS011;17458;48.958;8.284;2023-03-05T07:25:09;43.65;;;20.83;;
30707;SDS011;17458;48.958;8.284;2023-03-05T07:27:53;45.83;;;21.50;;
30707;SDS011;17458;48.958;8.284;2023-03-05T07:30:38;49.17;;;19.77;;
30707;SDS011;17458;48.958;8.284;2023-03-05T07:33:22;47.65;;;20.77;;
30707;SDS011;17458;48.958;8.284;2023-03-05T07:36:06;46.38;;;21.10;;
30707;SDS011;17458;48.958;8.284;2023-03-05T07:38:51;54.03;;;21.83;;
30707;SDS011;17458;48.958;8.284;2023-03-05T07:41:35;51.13;;;22.67;;
30707;SDS011;17458;48.958;8.284;2023-03-05T07:44:19;52.13;;;23.42;;
30707;SDS011;17458;48.958;8.284;2023-03-05T07:47:04;53.88;;;23.40;;
30707;SDS011;17458;48.958;8.284;2023-03-05T07:49:48;62.75;;;23.00;;
30707;SDS011;17458;48.958;8.284;2023-03-05T07:52:32;48.97;;;21.92;;
30707;SDS011;17458;48.958;8.284;2023-03-05T07:55:16;58.28;;;21.33;;
30707;SDS011;17458;48.958;8.284;2023-03-05T07:58:00;66.43;;;23.88;;
30707;SDS011;17458;48.958;8.284;2023-03-05T08:00:44;46.10;;;20.88;;
30707;SDS011;17458;48.958;8.284;2023-03-05T08:03:28;48.25;;;21.30;;
30707;SDS011;17458;48.958;8.284;2023-03-05T08:06:12;49.95;;;21.40;;
30707;SDS011;17458;48.958;8.284;2023-03-05T08:08:57;49.92;;;21.50;;
30707;SDS011;17458;48.958;8.284;2023-03-05T08:11:41;45.78;;;20.02;;
30707;SDS011;17458;48.958;8.284;2023-03-05T08:14:26;42.75;;;20.95;;
30707;SDS011;17458;48.958;8.284;2023-03-05T08:17:10;46.67;;;19.55;;
30707;SDS011;17458;48.958;8.284;2023-03-05T08:19:54;47.63;;;19.40;;
30707;SDS011;17458;48.958;8.284;2023-03-05T08:22:41;50.45;;;19.55;;
30707;SDS011;17458;48.958;8.284;2023-03-05T08:25:24;41.00;;;17.75;;
30707;SDS011;17458;48.958;8.284;2023-03-05T08:28:08;36.20;;;17.73;;
30707;SDS011;17458;48.958;8.284;2023-03-05T08:30:53;38.60;;;19.58;;
30707;SDS011;17458;48.958;8.284;2023-03-05T08:33:37;46.95;;;18.15;;
30707;SDS011;17458;48.958;8.284;2023-03-05T08:36:21;38.92;;;19.67;;
30707;SDS011;17458;48.958;8.284;2023-03-05T08:39:06;45.10;;;17.95;;
30707;SDS011;17458;48.958;8.284;2023-03-05T08:41:51;46.95;;;18.05;;
30707;SDS011;17458;48.958;8.284;2023-03-05T08:44:35;49.30;;;19.60;;
30707;SDS011;17458;48.958;8.284;2023-03-05T08:47:18;45.38;;;21.30;;
30707;SDS011;17458;48.958;8.284;2023-03-05T08:50:03;42.17;;;17.67;;
30707;SDS011;17458;48.958;8.284;2023-03-05T08:52:48;36.35;;;17.83;;
30707;SDS011;17458;48.958;8.284;2023-03-05T08:55:32;44.50;;;19.35;;
30707;SDS011;17458;48.958;8.284;2023-03-05T08:58:17;36.30;;;17.10;;
30707;SDS011;17458;48.958;8.284;2023-03-05T09:01:01;31.42;;;17.13;;
30707;SDS011;17458;48.958;8.284;2023-03-05T09:03:46;35.97;;;17.45;;
30707;SDS011;17458;48.958;8.284;2023-03-05T09:06:33;45.38;;;18.70;;
30707;SDS011;17458;48.958;8.284;2023-03-05T09:09:21;44.05;;;18.13;;
30707;SDS011;17458;48.958;8.284;2023-03-05T09:12:05;44.78;;;18.52;;
30707;SDS011;17458;48.958;8.284;2023-03-05T09:14:52;42.83;;;16.35;;
30707;SDS011;17458;48.958;8.284;2023-03-05T09:17:37;38.75;;;16.52;;
30707;SDS011;17458;48.958;8.284;2023-03-05T09:20:24;39.63;;;15.43;;
30707;SDS011;17458;48.958;8.284;2023-03-05T09:23:09;41.25;;;17.33;;
30707;SDS011;17458;48.958;8.284;2023-03-05T09:25:53;32.38;;;16.00;;
30707;SDS011;17458;48.958;8.284;2023-03-05T09:28:38;35.85;;;16.35;;
30707;SDS011;17458;48.958;8.284;2023-03-05T09:31:23;44.50;;;18.90;;
30707;SDS011;17458;48.958;8.284;2023-03-05T09:34:07;40.78;;;17.73;;
30707;SDS011;17458;48.958;8.284;2023-03-05T09:36:51;39.00;;;16.38;;
30707;SDS011;17458;48.958;8.284;2023-03-05T09:39:36;36.42;;;16.95;;
30707;SDS011;17458;48.958;8.284;2023-03-05T09:42:42;31.48;;;16.95;;
30707;SDS011;17458;48.958;8.284;2023-03-05T09:45:41;39.63;;;16.30;;
30707;SDS011;17458;48.958;8.284;2023-03-05T09:48:51;37.20;;;17.58;;
30707;SDS011;17458;48.958;8.284;2023-03-05T09:52:33;39.20;;;18.20;;
30707;SDS011;17458;48.958;8.284;2023-03-05T09:55:26;33.20;;;15.85;;
30707;SDS011;17458;48.958;8.284;2023-03-05T09:58:18;29.17;;;14.93;;
30707;SDS011;17458;48.958;8.284;2023-03-05T10:01:15;28.02;;;14.30;;
30707;SDS011;17458;48.958;8.284;2023-03-05T10:04:03;30.20;;;14.90;;
30707;SDS011;17458;48.958;8.284;2023-03-05T10:10:03;34.10;;;14.38;;
30707;SDS011;17458;48.958;8.284;2023-03-05T10:12:56;32.30;;;15.02;;
30707;SDS011;17458;48.958;8.284;2023-03-05T10:15:48;24.63;;;13.13;;
30707;SDS011;17458;48.958;8.284;2023-03-05T10:22:26;29.20;;;14.98;;
30707;SDS011;17458;48.958;8.284;2023-03-05T10:25:19;24.52;;;13.15;;
30707;SDS011;17458;48.958;8.284;2023-03-05T10:28:11;27.25;;;13.90;;
30707;SDS011;17458;48.958;8.284;2023-03-05T10:31:18;25.77;;;13.48;;
30707;SDS011;17458;48.958;8.284;2023-03-05T10:37:17;28.35;;;13.88;;
30707;SDS011;17458;48.958;8.284;2023-03-05T10:40:39;27.27;;;14.05;;
30707;SDS011;17458;48.958;8.284;2023-03-05T10:43:40;24.75;;;11.93;;
30707;SDS011;17458;48.958;8.284;2023-03-05T10:46:52;26.52;;;13.25;;
30707;SDS011;17458;48.958;8.284;2023-03-05T10:49:45;27.65;;;12.93;;
30707;SDS011;17458;48.958;8.284;2023-03-05T10:52:34;30.48;;;13.23;;
30707;SDS011;17458;48.958;8.284;2023-03-05T10:55:21;28.38;;;13.60;;
30707;SDS011;17458;48.958;8.284;2023-03-05T10:58:11;27.10;;;14.20;;
30707;SDS011;17458;48.958;8.284;2023-03-05T11:04:05;27.65;;;13.55;;
30707;SDS011;17458;48.958;8.284;2023-03-05T11:12:47;30.80;;;14.35;;
30707;SDS011;17458;48.958;8.284;2023-03-05T11:15:31;32.88;;;14.68;;
30707;SDS011;17458;48.958;8.284;2023-03-05T11:18:17;31.00;;;14.15;;
30707;SDS011;17458;48.958;8.284;2023-03-05T11:21:10;24.42;;;13.60;;
30707;SDS011;17458;48.958;8.284;2023-03-05T11:24:03;35.33;;;17.08;;
30707;SDS011;17458;48.958;8.284;2023-03-05T11:26:56;19.52;;;12.15;;
30707;SDS011;17458;48.958;8.284;2023-03-05T11:29:46;27.00;;;14.13;;
30707;SDS011;17458;48.958;8.284;2023-03-05T11:32:31;19.15;;;11.70;;
30707;SDS011;17458;48.958;8.284;2023-03-05T11:35:25;25.33;;;12.98;;
30707;SDS011;17458;48.958;8.284;2023-03-05T11:38:18;25.38;;;13.70;;
30707;SDS011;17458;48.958;8.284;2023-03-05T11:41:07;28.17;;;14.13;;
30707;SDS011;17458;48.958;8.284;2023-03-05T11:43:53;34.72;;;14.15;;
30707;SDS011;17458;48.958;8.284;2023-03-05T11:46:43;26.05;;;12.70;;
30707;SDS011;17458;48.958;8.284;2023-03-05T11:49:29;24.65;;;12.20;;
30707;SDS011;17458;48.958;8.284;2023-03-05T11:52:22;25.48;;;12.55;;
30707;SDS011;17458;48.958;8.284;2023-03-05T11:55:14;29.58;;;12.63;;
30707;SDS011;17458;48.958;8.284;2023-03-05T12:01:14;23.05;;;11.98;;
30707;SDS011;17458;48.958;8.284;2023-03-05T12:04:00;23.92;;;13.20;;
30707;SDS011;17458;48.958;8.284;2023-03-05T12:06:50;22.05;;;13.13;;
30707;SDS011;17458;48.958;8.284;2023-03-05T12:09:39;26.92;;;14.15;;
30707;SDS011;17458;48.958;8.284;2023-03-05T12:15:39;24.92;;;12.18;;
30707;SDS011;17458;48.958;8.284;2023-03-05T12:21:35;36.30;;;12.65;;
30707;SDS011;17458;48.958;8.284;2023-03-05T12:27:07;22.63;;;11.63;;
30707;SDS011;17458;48.958;8.284;2023-03-05T12:29:53;19.77;;;10.93;;
30707;SDS011;17458;48.958;8.284;2023-03-05T12:35:34;26.02;;;13.23;;
30707;SDS011;17458;48.958;8.284;2023-03-05T12:38:28;27.42;;;12.32;;
30707;SDS011;17458;48.958;8.284;2023-03-05T12:49:54;24.70;;;13.63;;
30707;SDS011;17458;48.958;8.284;2023-03-05T12:52:38;29.73;;;13.70;;
30707;SDS011;17458;48.958;8.284;2023-03-05T12:55:28;29.58;;;12.95;;
30707;SDS011;17458;48.958;8.284;2023-03-05T12:58:19;28.55;;;14.10;;
30707;SDS011;17458;48.958;8.284;2023-03-05T13:04:29;24.42;;;13.25;;
30707;SDS011;17458;48.958;8.284;2023-03-05T13:07:16;34.13;;;14.43;;
30707;SDS011;17458;48.958;8.284;2023-03-05T13:10:01;31.23;;;14.23;;
30707;SDS011;17458;48.958;8.284;2023-03-05T13:12:52;31.88;;;14.20;;
30707;SDS011;17458;48.958;8.284;2023-03-05T13:15:38;34.03;;;15.90;;
30707;SDS011;17458;48.958;8.284;2023-03-05T13:18:22;30.83;;;14.25;;
30707;SDS011;17458;48.958;8.284;2023-03-05T13:21:15;26.20;;;15.50;;
30707;SDS011;17458;48.958;8.284;2023-03-05T13:24:01;35.70;;;15.50;;
30707;SDS011;17458;48.958;8.284;2023-03-05T13:26:46;29.02;;;16.15;;
30707;SDS011;17458;48.958;8.284;2023-03-05T13:29:30;35.58;;;15.73;;
30707;SDS011;17458;48.958;8.284;2023-03-05T13:32:21;27.75;;;14.55;;
30707;SDS011;17458;48.958;8.284;2023-03-05T13:35:14;36.33;;;17.02;;
30707;SDS011;17458;48.958;8.284;2023-03-05T13:37:58;33.85;;;16.00;;
30707;SDS011;17458;48.958;8.284;2023-03-05T13:40:43;31.63;;;15.90;;
30707;SDS011;17458;48.958;8.284;2023-03-05T13:43:27;32.83;;;16.02;;
30707;SDS011;17458;48.958;8.284;2023-03-05T13:46:11;28.70;;;15.20;;
30707;SDS011;17458;48.958;8.284;2023-03-05T13:48:55;39.95;;;18.67;;
30707;SDS011;17458;48.958;8.284;2023-03-05T13:51:42;43.75;;;22.30;;
30707;SDS011;17458;48.958;8.284;2023-03-05T13:54:28;37.85;;;17.58;;
30707;SDS011;17458;48.958;8.284;2023-03-05T13:57:30;34.92;;;15.77;;
30707;SDS011;17458;48.958;8.284;2023-03-05T14:00:32;32.33;;;16.38;;
30707;SDS011;17458;48.958;8.284;2023-03-05T14:03:23;35.55;;;15.27;;
30707;SDS011;17458;48.958;8.284;2023-03-05T14:06:09;33.13;;;15.05;;
30707;SDS011;17458;48.958;8.284;2023-03-05T14:08:59;34.58;;;15.40;;
30707;SDS011;17458;48.958;8.284;2023-03-05T14:12:14;29.92;;;16.40;;
30707;SDS011;17458;48.958;8.284;2023-03-05T14:15:33;32.35;;;16.77;;
30707;SDS011;17458;48.958;8.284;2023-03-05T14:18:18;39.67;;;16.55;;
30707;SDS011;17458;48.958;8.284;2023-03-05T14:21:06;29.00;;;14.50;;
30707;SDS011;17458;48.958;8.284;2023-03-05T14:23:54;34.95;;;15.73;;
30707;SDS011;17458;48.958;8.284;2023-03-05T14:26:45;27.92;;;15.15;;
30707;SDS011;17458;48.958;8.284;2023-03-05T14:29:44;35.70;;;16.08;;
30707;SDS011;17458;48.958;8.284;2023-03-05T14:32:34;26.42;;;13.23;;
30707;SDS011;17458;48.958;8.284;2023-03-05T14:35:20;42.75;;;17.42;;
30707;SDS011;17458;48.958;8.284;2023-03-05T14:38:14;34.85;;;16.33;;
30707;SDS011;17458;48.958;8.284;2023-03-05T14:44:21;41.22;;;18.45;;
30707;SDS011;17458;48.958;8.284;2023-03-05T14:47:08;47.08;;;20.08;;
30707;SDS011;17458;48.958;8.284;2023-03-05T14:49:52;47.33;;;19.27;;
30707;SDS011;17458;48.958;8.284;2023-03-05T14:52:37;33.50;;;18.00;;
30707;SDS011;17458;48.958;8.284;2023-03-05T14:55:22;35.95;;;16.27;;
30707;SDS011;17458;48.958;8.284;2023-03-05T14:58:12;37.58;;;18.02;;
30707;SDS011;17458;48.958;8.284;2023-03-05T15:00:57;28.27;;;15.35;;
30707;SDS011;17458;48.958;8.284;2023-03-05T15:03:42;29.08;;;17.13;;
30707;SDS011;17458;48.958;8.284;2023-03-05T15:06:28;36.60;;;16.55;;
30707;SDS011;17458;48.958;8.284;2023-03-05T15:09:16;35.92;;;16.85;;
30707;SDS011;17458;48.958;8.284;2023-03-05T15:12:02;30.05;;;15.15;;
30707;SDS011;17458;48.958;8.284;2023-03-05T15:14:47;35.42;;;18.25;;
30707;SDS011;17458;48.958;8.284;2023-03-05T15:17:32;31.23;;;15.82;;
30707;SDS011;17458;48.958;8.284;2023-03-05T15:20:19;32.08;;;16.17;;
30707;SDS011;17458;48.958;8.284;2023-03-05T15:23:09;32.35;;;16.42;;
30707;SDS011;17458;48.958;8.284;2023-03-05T15:25:54;32.10;;;15.75;;
30707;SDS011;17458;48.958;8.284;2023-03-05T15:28:39;36.00;;;15.48;;
30707;SDS011;17458;48.958;8.284;2023-03-05T15:31:23;31.52;;;16.42;;
30707;SDS011;17458;48.958;8.284;2023-03-05T15:34:07;30.90;;;15.77;;
30707;SDS011;17458;48.958;8.284;2023-03-05T15:36:51;37.13;;;16.13;;
30707;SDS011;17458;48.958;8.284;2023-03-05T15:39:35;35.17;;;16.05;;
30707;SDS011;17458;48.958;8.284;2023-03-05T15:42:19;31.90;;;14.80;;
30707;SDS011;17458;48.958;8.284;2023-03-05T15:45:03;37.88;;;17.23;;
30707;SDS011;17458;48.958;8.284;2023-03-05T15:47:51;31.25;;;15.32;;
30707;SDS011;17458;48.958;8.284;2023-03-05T15:50:35;35.70;;;16.75;;
30707;SDS011;17458;48.958;8.284;2023-03-05T15:53:22;31.27;;;16.30;;
30707;SDS011;17458;48.958;8.284;2023-03-05T15:56:06;35.30;;;16.88;;
30707;SDS011;17458;48.958;8.284;2023-03-05T15:58:50;30.73;;;15.95;;
30707;SDS011;17458;48.958;8.284;2023-03-05T16:01:37;33.70;;;15.13;;
30707;SDS011;17458;48.958;8.284;2023-03-05T16:04:22;31.50;;;15.43;;
30707;SDS011;17458;48.958;8.284;2023-03-05T16:07:06;29.67;;;14.95;;
30707;SDS011;17458;48.958;8.284;2023-03-05T16:09:51;32.72;;;15.50;;
30707;SDS011;17458;48.958;8.284;2023-03-05T16:12:36;31.13;;;13.90;;
30707;SDS011;17458;48.958;8.284;2023-03-05T16:15:23;38.22;;;15.88;;
30707;SDS011;17458;48.958;8.284;2023-03-05T16:18:09;32.08;;;14.93;;
30707;SDS011;17458;48.958;8.284;2023-03-05T16:20:56;25.00;;;14.32;;
30707;SDS011;17458;48.958;8.284;2023-03-05T16:23:42;30.88;;;15.13;;
30707;SDS011;17458;48.958;8.284;2023-03-05T16:26:25;29.80;;;14.68;;
30707;SDS011;17458;48.958;8.284;2023-03-05T16:29:09;31.40;;;15.50;;
30707;SDS011;17458;48.958;8.284;2023-03-05T16:31:54;33.92;;;14.98;;
30707;SDS011;17458;48.958;8.284;2023-03-05T16:34:38;27.55;;;14.63;;
30707;SDS011;17458;48.958;8.284;2023-03-05T16:37:22;26.83;;;13.52;;
30707;SDS011;17458;48.958;8.284;2023-03-05T16:40:08;33.65;;;15.75;;
30707;SDS011;17458;48.958;8.284;2023-03-05T16:42:53;42.72;;;16.42;;
30707;SDS011;17458;48.958;8.284;2023-03-05T16:45:38;28.45;;;15.25;;
30707;SDS011;17458;48.958;8.284;2023-03-05T16:48:22;38.30;;;16.20;;
30707;SDS011;17458;48.958;8.284;2023-03-05T16:51:06;35.50;;;14.98;;
30707;SDS011;17458;48.958;8.284;2023-03-05T16:53:49;32.00;;;16.33;;
30707;SDS011;17458;48.958;8.284;2023-03-05T16:56:34;31.75;;;14.80;;
30707;SDS011;17458;48.958;8.284;2023-03-05T16:59:18;29.23;;;14.52;;
30707;SDS011;17458;48.958;8.284;2023-03-05T17:02:03;28.55;;;15.05;;
30707;SDS011;17458;48.958;8.284;2023-03-05T17:04:47;25.08;;;12.70;;
30707;SDS011;17458;48.958;8.284;2023-03-05T17:07:35;44.10;;;14.55;;